createdAt,value
2023-01-27T00:00:55.062Z,-6.68
2023-01-27T00:03:23.179Z,-6.68
2023-01-27T00:05:50.598Z,-6.69
2023-01-27T00:08:19.357Z,-6.73
2023-01-27T00:11:07.567Z,-6.79
2023-01-27T00:13:34.762Z,-6.86
2023-01-27T00:16:01.800Z,-6.93
2023-01-27T00:18:29.201Z,-7.00
2023-01-27T00:21:15.279Z,-7.04
2023-01-27T00:24:00.580Z,-7.09
2023-01-27T00:26:28.035Z,-7.18
2023-01-27T00:28:55.310Z,-7.28
2023-01-27T00:31:41.954Z,-7.35
2023-01-27T00:34:08.810Z,-7.41
2023-01-27T00:36:41.444Z,-7.43
2023-01-27T00:39:11.296Z,-7.45
2023-01-27T00:41:39.820Z,-7.46
2023-01-27T00:44:12.167Z,-7.46
2023-01-27T00:46:41.651Z,-7.45
2023-01-27T00:49:10.714Z,-7.45
2023-01-27T00:51:38.701Z,-7.45
2023-01-27T00:54:06.024Z,-7.43
2023-01-27T00:56:33.330Z,-7.43
2023-01-27T00:59:00.841Z,-7.45
2023-01-27T01:01:30.273Z,-7.47
2023-01-27T01:04:00.443Z,-7.51
2023-01-27T01:06:27.910Z,-7.56
2023-01-27T01:08:57.994Z,-7.60
2023-01-27T01:11:25.968Z,-7.61
2023-01-27T01:13:55.911Z,-7.63
2023-01-27T01:16:24.882Z,-7.69
2023-01-27T01:18:52.889Z,-7.76
2023-01-27T01:21:21.131Z,-7.80
2023-01-27T01:23:50.372Z,-7.85
2023-01-27T01:26:18.330Z,-7.90
2023-01-27T01:28:46.597Z,-7.94
2023-01-27T01:31:17.212Z,-7.94
2023-01-27T01:33:45.607Z,-7.92
2023-01-27T01:36:16.015Z,-7.88
2023-01-27T01:38:43.105Z,-7.84
2023-01-27T01:41:15.748Z,-7.78
2023-01-27T01:43:43.400Z,-7.75
2023-01-27T01:46:15.871Z,-7.74
2023-01-27T01:48:48.294Z,-7.72
2023-01-27T01:51:33.648Z,-7.69
2023-01-27T01:54:08.056Z,-7.68
2023-01-27T01:56:56.942Z,-7.69
2023-01-27T01:59:28.233Z,-7.70
2023-01-27T02:02:00.290Z,-7.70
2023-01-27T02:04:34.011Z,-7.71
2023-01-27T02:07:22.139Z,-7.72
2023-01-27T02:09:53.853Z,-7.73
2023-01-27T02:12:20.825Z,-7.72
2023-01-27T02:14:48.154Z,-7.71
2023-01-27T02:17:15.182Z,-7.71
2023-01-27T02:20:02.812Z,-7.69
2023-01-27T02:23:01.168Z,-7.66
2023-01-27T02:25:33.684Z,-7.60
2023-01-27T02:28:02.736Z,-7.59
2023-01-27T02:30:30.201Z,-7.60
2023-01-27T02:32:58.004Z,-7.64
2023-01-27T02:35:49.238Z,-7.68
2023-01-27T02:38:18.407Z,-7.71
2023-01-27T02:40:49.639Z,-7.74
2023-01-27T02:43:18.749Z,-7.76
2023-01-27T02:45:47.132Z,-7.76
2023-01-27T02:48:14.385Z,-7.75
2023-01-27T02:50:43.194Z,-7.75
2023-01-27T02:53:11.321Z,-7.75
2023-01-27T02:55:38.682Z,-7.78
2023-01-27T02:58:05.822Z,-7.82
2023-01-27T03:00:43.868Z,-7.85
2023-01-27T03:03:12.504Z,-7.88
2023-01-27T03:05:41.195Z,-7.89
2023-01-27T03:08:09.220Z,-7.89
2023-01-27T03:10:36.402Z,-7.88
2023-01-27T03:13:03.988Z,-7.88
2023-01-27T03:15:50.106Z,-7.89
2023-01-27T03:18:17.535Z,-7.94
2023-01-27T03:20:46.827Z,-7.98
2023-01-27T03:23:16.125Z,-8.00
2023-01-27T03:25:47.715Z,-8.00
2023-01-27T03:28:15.193Z,-7.98
2023-01-27T03:31:09.475Z,-7.95
2023-01-27T03:33:47.124Z,-7.92
2023-01-27T03:36:45.954Z,-7.90
2023-01-27T03:39:31.706Z,-7.93
2023-01-27T03:42:17.777Z,-7.99
2023-01-27T03:45:03.482Z,-8.05
2023-01-27T03:47:30.444Z,-8.11
2023-01-27T03:49:57.242Z,-8.16
2023-01-27T03:52:24.566Z,-8.20
2023-01-27T03:54:51.468Z,-8.24
2023-01-27T03:57:19.225Z,-8.26
2023-01-27T03:59:46.045Z,-8.29
2023-01-27T04:02:31.325Z,-8.30
2023-01-27T04:05:16.608Z,-8.33
2023-01-27T04:07:43.659Z,-8.36
2023-01-27T04:10:11.552Z,-8.37
2023-01-27T04:12:38.440Z,-8.37
2023-01-27T04:15:06.167Z,-8.38
2023-01-27T04:17:38.289Z,-8.40
2023-01-27T04:20:05.588Z,-8.41
2023-01-27T04:22:32.619Z,-8.39
2023-01-27T04:25:05.954Z,-8.40
2023-01-27T04:27:32.994Z,-8.42
2023-01-27T04:29:59.916Z,-8.40
2023-01-27T04:32:26.976Z,-8.35
2023-01-27T04:34:54.140Z,-8.33
2023-01-27T04:37:21.137Z,-8.35
2023-01-27T04:39:49.502Z,-8.38
2023-01-27T04:42:16.453Z,-8.38
2023-01-27T04:44:43.302Z,-8.40
2023-01-27T04:47:11.299Z,-8.45
2023-01-27T04:49:38.676Z,-8.49
2023-01-27T04:52:05.989Z,-8.50
2023-01-27T04:54:32.863Z,-8.48
2023-01-27T04:57:05.136Z,-8.49
2023-01-27T04:59:32.128Z,-8.49
2023-01-27T05:01:59.107Z,-8.50
2023-01-27T05:04:26.613Z,-8.51
2023-01-27T05:06:54.144Z,-8.50
2023-01-27T05:09:21.716Z,-8.51
2023-01-27T05:11:48.686Z,-8.53
2023-01-27T05:14:15.585Z,-8.57
2023-01-27T05:16:42.848Z,-8.58
2023-01-27T05:19:09.770Z,-8.60
2023-01-27T05:21:37.227Z,-8.58
2023-01-27T05:24:04.351Z,-8.54
2023-01-27T05:26:31.757Z,-8.60
2023-01-27T05:28:59.646Z,-8.66
2023-01-27T05:31:30.883Z,-8.62
2023-01-27T05:33:59.844Z,-8.58
2023-01-27T05:36:27.888Z,-8.54
2023-01-27T05:38:56.037Z,-8.51
2023-01-27T05:41:23.022Z,-8.46
2023-01-27T05:43:55.249Z,-8.40
2023-01-27T05:46:28.583Z,-8.34
2023-01-27T05:49:00.657Z,-8.26
2023-01-27T05:51:32.039Z,-8.17
2023-01-27T05:53:59.297Z,-8.10
2023-01-27T05:56:26.373Z,-8.06
2023-01-27T05:58:56.842Z,-8.01
2023-01-27T06:01:27.626Z,-7.96
2023-01-27T06:03:54.565Z,-7.87
2023-01-27T06:06:24.441Z,-7.74
2023-01-27T06:08:52.154Z,-7.56
2023-01-27T06:11:20.368Z,-7.39
2023-01-27T06:13:50.799Z,-7.25
2023-01-27T06:16:19.713Z,-7.07
2023-01-27T06:18:48.230Z,-6.90
2023-01-27T06:21:19.888Z,-6.73
2023-01-27T06:23:46.939Z,-6.56
2023-01-27T06:26:16.326Z,-6.37
2023-01-27T06:28:43.487Z,-6.20
2023-01-27T06:31:16.867Z,-6.01
2023-01-27T06:33:44.355Z,-5.82
2023-01-27T06:36:15.845Z,-5.66
2023-01-27T06:38:43.316Z,-5.53
2023-01-27T06:41:10.748Z,-5.42
2023-01-27T06:43:41.484Z,-5.30
2023-01-27T06:46:08.630Z,-5.21
2023-01-27T06:48:37.293Z,-5.13
2023-01-27T06:51:04.772Z,-5.05
2023-01-27T06:53:36.762Z,-4.96
2023-01-27T06:56:04.836Z,-4.88
2023-01-27T06:58:32.557Z,-4.79
2023-01-27T07:00:59.731Z,-4.71
2023-01-27T07:03:26.759Z,-4.60
2023-01-27T07:05:53.768Z,-4.50
2023-01-27T07:08:20.704Z,-4.38
2023-01-27T07:10:47.695Z,-4.27
2023-01-27T07:13:15.347Z,-4.15
2023-01-27T07:15:42.429Z,-4.05
2023-01-27T07:18:12.733Z,-3.94
2023-01-27T07:20:41.801Z,-3.83
2023-01-27T07:23:09.109Z,-3.73
2023-01-27T07:25:36.048Z,-3.60
2023-01-27T07:28:03.528Z,-3.51
2023-01-27T07:30:33.477Z,-3.45
2023-01-27T07:33:09.767Z,-3.36
2023-01-27T07:35:38.765Z,-3.23
2023-01-27T07:38:06.612Z,-3.07
2023-01-27T07:40:36.121Z,-2.92
2023-01-27T07:43:03.629Z,-2.82
2023-01-27T07:45:30.699Z,-2.81
2023-01-27T07:48:02.268Z,-2.76
2023-01-27T07:50:29.831Z,-2.74
2023-01-27T07:53:01.749Z,-2.68
2023-01-27T07:55:30.011Z,-2.61
2023-01-27T07:57:57.685Z,-2.57
2023-01-27T08:00:25.198Z,-2.51
2023-01-27T08:02:53.885Z,-2.41
2023-01-27T08:05:22.408Z,-2.30
2023-01-27T08:07:50.176Z,-2.19
2023-01-27T08:10:18.330Z,-2.13
2023-01-27T08:12:46.046Z,-2.04
2023-01-27T08:15:13.701Z,-1.96
2023-01-27T08:17:42.484Z,-1.87
2023-01-27T08:20:11.014Z,-1.84
2023-01-27T08:22:38.405Z,-1.80
2023-01-27T08:25:06.631Z,-1.78
2023-01-27T08:27:33.752Z,-1.72
2023-01-27T08:30:00.672Z,-1.65
2023-01-27T08:32:28.249Z,-1.54
2023-01-27T08:34:55.522Z,-1.45
2023-01-27T08:37:25.058Z,-1.37
2023-01-27T08:39:52.244Z,-1.31
2023-01-27T08:42:19.498Z,-1.28
2023-01-27T08:44:46.665Z,-1.22
2023-01-27T08:47:17.548Z,-1.15
2023-01-27T08:49:45.620Z,-1.04
2023-01-27T08:52:13.015Z,-0.95
2023-01-27T08:54:39.996Z,-0.85
2023-01-27T08:57:06.985Z,-0.72
2023-01-27T08:59:34.049Z,-0.64
2023-01-27T09:02:01.050Z,-0.58
2023-01-27T09:04:29.593Z,-0.47
2023-01-27T09:06:56.719Z,-0.36
2023-01-27T09:09:23.922Z,-0.30
2023-01-27T09:11:51.400Z,-0.26
2023-01-27T09:14:19.725Z,-0.19
